Decoded Metar for LPAZ (SANTA MARIA (ISLAND) in PORTUGAL) (IATA:SMA) | Meteo·Mobile Aviation Weather
aviador You're here:

LPAZ Decoded Metar

SANTA MARIA (ISLAND) in PORTUGAL
Report Time2020-02-23 11:30:00
UTC Time2020-02-23 11:42:06
Flight Rules vfr VFR
Wind240° at 03 kt
W.Decomp.*RWY 18: 1.0 kt HW 2.8 kt RCW
Visibility9999 m
Phenomena:N/A
Clouds:Few 014 Hf
Expected CloudBase > 1,200 ft AGL from Temp-Dew spread
CeilingNone
Temp17°C (ISA +3)
Dew Point14°C (83% RH)
QNH1033 hPa
Density Alt184 ft
Elevation328 ft
Report Wrong Elevation
Raw Report
LPAZ 231130Z 24003KT 190V270 9999 FEW014 17/14 Q1033=

Extra information for LPAZ:More info

Metar Taf Metar & Taf Last 4 Metars F.Rules Stats Wind Profile Meteogram Temp Stats Airport Information Weather charts Add Link Nearby VenuesMetar ALERT Operation Metar Decoded Social comments